Vremea acum in Nadlac - Romania

Vrei sa afli care e starea vremii acum in Timis - Romania? Dorim sa iti furnizam starea vremii pentru Timis - Romania. Starea vremii Timis - Romania pentru astazi.

Vremea acum in Nadlac

Temperatura: 1 °C

Se simte ca: -4.3 °C
Innorat: 0 %
Precipitatii: 0 %
Presiune atmosferica: 1016 hPa
Umiditate: 75%
Vizibilitate: 10 km
Vantul bate din N cu 22 km/h

Evolutia vremii in Nadlac pe ore

Ora: 12:00
Parțial noros
Temperatura: 1.1°C
Sansa de precipitatii: 0%
Ora Descriere Temp Se simte Precipitatii Umiditate Vant
00:00Ninsori în cantităţi mici-0.8°-5.8°0%91%NNW 17.6 KM/H
01:00Noros-1.1°-6.1°0%91%NW 16.9 KM/H
02:00Parțial noros-1.1°-6.2°0%89%NW 17.6 KM/H
03:00Noros-1°-6.3°0%87%NW 18.7 KM/H
04:00Parțial noros-1°-6.4°0%85%NNW 19.4 KM/H
05:00Parțial noros-1.3°-6.7°0%85%NNW 18.7 KM/H
06:00Parțial noros-1.6°-6.9°0%85%NNW 18.4 KM/H
07:00Parțial noros-1.9°-7.2°0%84%NNW 17.6 KM/H
08:00Parțial noros-1.2°-6.5°0%82%NNW 19.1 KM/H
09:00Parțial noros-0.4°-5.8°0%80%NNW 20.2 KM/H
10:00Parțial noros0.3°-5.1°0%78%N 21.6 KM/H
11:00Parțial noros0.7°-4.4°0%78%N 20.5 KM/H
12:00Parțial noros1.1°-3.8°0%77%N 19.1 KM/H
13:00Parțial noros1.5°-3.1°0%76%N 18 KM/H
14:00Parțial noros-3°0%78%N 14.8 KM/H
15:00Parțial noros0.6°-2.8°0%80%N 11.5 KM/H
16:00Parțial noros0.1°-2.7°0%82%NNW 8.3 KM/H
17:00Parțial noros-0.4°-3.3°0%83%NNW 8.3 KM/H
18:00Parțial noros-0.8°-3.9°0%84%NNW 8.6 KM/H
19:00Parțial noros-1.3°-4.5°0%85%NNW 8.6 KM/H
20:00Parțial noros-1.3°-4.5°0%84%NNW 8.6 KM/H
21:00Parțial noros-1.3°-4.4°0%84%NNW 8.3 KM/H
22:00Parțial noros-1.3°-4.4°0%84%NNW 8.3 KM/H
23:00Parțial noros-1.4°-4.4°0%84%SW 7.9 KM/H